sensor_id;sensor_type;location;lat;lon;timestamp;P1;durP1;ratioP1;P2;durP2;ratioP2
51286;SDS011;37364;46.974;18.916;2023-10-08T00:01:18;15.75;;;5.05;;
51286;SDS011;37364;46.974;18.916;2023-10-08T00:03:49;7.88;;;4.55;;
51286;SDS011;37364;46.974;18.916;2023-10-08T00:06:28;9.15;;;4.57;;
51286;SDS011;37364;46.974;18.916;2023-10-08T00:08:59;6.05;;;4.28;;
51286;SDS011;37364;46.974;18.916;2023-10-08T00:11:35;8.00;;;5.10;;
51286;SDS011;37364;46.974;18.916;2023-10-08T00:14:07;7.38;;;4.50;;
51286;SDS011;37364;46.974;18.916;2023-10-08T00:16:44;5.45;;;4.13;;
51286;SDS011;37364;46.974;18.916;2023-10-08T00:19:16;12.60;;;4.68;;
51286;SDS011;37364;46.974;18.916;2023-10-08T00:21:50;8.63;;;4.53;;
51286;SDS011;37364;46.974;18.916;2023-10-08T00:24:22;9.00;;;4.90;;
51286;SDS011;37364;46.974;18.916;2023-10-08T00:26:54;10.90;;;5.53;;
51286;SDS011;37364;46.974;18.916;2023-10-08T00:29:24;9.57;;;5.28;;
51286;SDS011;37364;46.974;18.916;2023-10-08T00:31:58;8.30;;;5.13;;
51286;SDS011;37364;46.974;18.916;2023-10-08T00:34:40;8.32;;;4.57;;
51286;SDS011;37364;46.974;18.916;2023-10-08T00:37:14;10.50;;;4.60;;
51286;SDS011;37364;46.974;18.916;2023-10-08T00:39:44;8.15;;;4.40;;
51286;SDS011;37364;46.974;18.916;2023-10-08T00:42:16;10.27;;;5.57;;
51286;SDS011;37364;46.974;18.916;2023-10-08T00:44:48;10.88;;;5.68;;
51286;SDS011;37364;46.974;18.916;2023-10-08T00:47:19;6.25;;;4.57;;
51286;SDS011;37364;46.974;18.916;2023-10-08T00:49:53;8.43;;;5.10;;
51286;SDS011;37364;46.974;18.916;2023-10-08T00:52:33;16.67;;;4.78;;
51286;SDS011;37364;46.974;18.916;2023-10-08T00:55:20;10.93;;;5.38;;
51286;SDS011;37364;46.974;18.916;2023-10-08T00:57:56;8.90;;;4.45;;
51286;SDS011;37364;46.974;18.916;2023-10-08T01:00:36;7.93;;;4.20;;
51286;SDS011;37364;46.974;18.916;2023-10-08T01:03:09;9.70;;;5.35;;
51286;SDS011;37364;46.974;18.916;2023-10-08T01:05:46;10.05;;;4.80;;
51286;SDS011;37364;46.974;18.916;2023-10-08T01:08:19;11.65;;;5.38;;
51286;SDS011;37364;46.974;18.916;2023-10-08T01:13:53;11.35;;;5.93;;
51286;SDS011;37364;46.974;18.916;2023-10-08T01:16:25;13.55;;;6.68;;
51286;SDS011;37364;46.974;18.916;2023-10-08T01:19:00;11.45;;;6.90;;
51286;SDS011;37364;46.974;18.916;2023-10-08T01:21:38;13.38;;;8.45;;
51286;SDS011;37364;46.974;18.916;2023-10-08T01:24:11;19.15;;;9.95;;
51286;SDS011;37364;46.974;18.916;2023-10-08T01:26:44;21.67;;;9.43;;
51286;SDS011;37364;46.974;18.916;2023-10-08T01:29:14;24.83;;;11.02;;
51286;SDS011;37364;46.974;18.916;2023-10-08T01:31:48;17.27;;;9.40;;
51286;SDS011;37364;46.974;18.916;2023-10-08T01:34:20;16.33;;;8.82;;
51286;SDS011;37364;46.974;18.916;2023-10-08T01:36:55;10.82;;;7.55;;
51286;SDS011;37364;46.974;18.916;2023-10-08T01:39:31;9.50;;;5.60;;
51286;SDS011;37364;46.974;18.916;2023-10-08T01:42:01;11.40;;;6.03;;
51286;SDS011;37364;46.974;18.916;2023-10-08T01:44:32;7.65;;;5.38;;
51286;SDS011;37364;46.974;18.916;2023-10-08T01:47:03;7.63;;;4.82;;
51286;SDS011;37364;46.974;18.916;2023-10-08T01:49:33;10.15;;;4.93;;
51286;SDS011;37364;46.974;18.916;2023-10-08T01:52:05;7.28;;;4.50;;
51286;SDS011;37364;46.974;18.916;2023-10-08T01:54:44;6.45;;;4.88;;
51286;SDS011;37364;46.974;18.916;2023-10-08T01:57:15;10.73;;;5.32;;
51286;SDS011;37364;46.974;18.916;2023-10-08T01:59:45;6.78;;;4.60;;
51286;SDS011;37364;46.974;18.916;2023-10-08T02:02:16;8.20;;;4.95;;
51286;SDS011;37364;46.974;18.916;2023-10-08T02:04:46;11.68;;;4.80;;
51286;SDS011;37364;46.974;18.916;2023-10-08T02:07:17;10.43;;;4.68;;
51286;SDS011;37364;46.974;18.916;2023-10-08T02:09:50;8.20;;;4.63;;
51286;SDS011;37364;46.974;18.916;2023-10-08T02:12:20;9.23;;;5.07;;
51286;SDS011;37364;46.974;18.916;2023-10-08T02:14:52;11.32;;;4.88;;
51286;SDS011;37364;46.974;18.916;2023-10-08T02:17:23;11.30;;;5.55;;
51286;SDS011;37364;46.974;18.916;2023-10-08T02:19:56;7.78;;;5.20;;
51286;SDS011;37364;46.974;18.916;2023-10-08T02:22:26;7.78;;;4.80;;
51286;SDS011;37364;46.974;18.916;2023-10-08T02:24:59;11.35;;;5.80;;
51286;SDS011;37364;46.974;18.916;2023-10-08T02:27:30;7.78;;;4.60;;
51286;SDS011;37364;46.974;18.916;2023-10-08T02:30:01;9.27;;;4.93;;
51286;SDS011;37364;46.974;18.916;2023-10-08T02:32:36;8.57;;;4.45;;
51286;SDS011;37364;46.974;18.916;2023-10-08T02:35:09;11.38;;;5.22;;
51286;SDS011;37364;46.974;18.916;2023-10-08T02:37:43;8.48;;;4.43;;
51286;SDS011;37364;46.974;18.916;2023-10-08T02:40:17;8.40;;;5.03;;
51286;SDS011;37364;46.974;18.916;2023-10-08T02:42:54;7.90;;;4.90;;
51286;SDS011;37364;46.974;18.916;2023-10-08T02:45:27;15.05;;;5.30;;
51286;SDS011;37364;46.974;18.916;2023-10-08T02:47:58;8.88;;;5.45;;
51286;SDS011;37364;46.974;18.916;2023-10-08T02:50:28;5.47;;;4.40;;
51286;SDS011;37364;46.974;18.916;2023-10-08T02:52:59;12.82;;;4.97;;
51286;SDS011;37364;46.974;18.916;2023-10-08T02:55:33;6.03;;;4.28;;
51286;SDS011;37364;46.974;18.916;2023-10-08T02:58:08;5.63;;;4.13;;
51286;SDS011;37364;46.974;18.916;2023-10-08T03:00:42;9.90;;;4.57;;
51286;SDS011;37364;46.974;18.916;2023-10-08T03:03:14;9.65;;;4.00;;
51286;SDS011;37364;46.974;18.916;2023-10-08T03:05:47;10.23;;;4.65;;
51286;SDS011;37364;46.974;18.916;2023-10-08T03:08:18;12.63;;;4.78;;
51286;SDS011;37364;46.974;18.916;2023-10-08T03:10:52;6.68;;;4.50;;
51286;SDS011;37364;46.974;18.916;2023-10-08T03:13:29;9.68;;;4.10;;
51286;SDS011;37364;46.974;18.916;2023-10-08T03:16:02;5.45;;;4.38;;
51286;SDS011;37364;46.974;18.916;2023-10-08T03:18:40;6.50;;;3.90;;
51286;SDS011;37364;46.974;18.916;2023-10-08T03:21:17;5.63;;;3.80;;
51286;SDS011;37364;46.974;18.916;2023-10-08T03:24:11;11.88;;;4.57;;
51286;SDS011;37364;46.974;18.916;2023-10-08T03:26:59;5.47;;;3.85;;
51286;SDS011;37364;46.974;18.916;2023-10-08T03:29:40;9.70;;;4.18;;
51286;SDS011;37364;46.974;18.916;2023-10-08T03:34:47;15.50;;;4.60;;
51286;SDS011;37364;46.974;18.916;2023-10-08T03:37:22;7.68;;;4.03;;
51286;SDS011;37364;46.974;18.916;2023-10-08T03:40:08;5.53;;;3.35;;
51286;SDS011;37364;46.974;18.916;2023-10-08T03:43:01;10.25;;;3.72;;
51286;SDS011;37364;46.974;18.916;2023-10-08T03:45:42;6.10;;;3.85;;
51286;SDS011;37364;46.974;18.916;2023-10-08T03:48:20;9.57;;;3.78;;
51286;SDS011;37364;46.974;18.916;2023-10-08T03:50:52;9.23;;;4.13;;
51286;SDS011;37364;46.974;18.916;2023-10-08T03:53:27;7.65;;;4.22;;
51286;SDS011;37364;46.974;18.916;2023-10-08T03:56:00;5.80;;;3.58;;
51286;SDS011;37364;46.974;18.916;2023-10-08T03:58:35;4.85;;;3.80;;
51286;SDS011;37364;46.974;18.916;2023-10-08T04:01:13;6.53;;;4.00;;
51286;SDS011;37364;46.974;18.916;2023-10-08T04:03:46;11.27;;;3.75;;
51286;SDS011;37364;46.974;18.916;2023-10-08T04:06:25;11.25;;;5.03;;
51286;SDS011;37364;46.974;18.916;2023-10-08T04:09:05;7.70;;;4.20;;
51286;SDS011;37364;46.974;18.916;2023-10-08T04:11:43;7.50;;;4.05;;
51286;SDS011;37364;46.974;18.916;2023-10-08T04:14:32;10.23;;;4.05;;
51286;SDS011;37364;46.974;18.916;2023-10-08T04:17:03;10.98;;;4.32;;
51286;SDS011;37364;46.974;18.916;2023-10-08T04:22:07;7.20;;;3.75;;
51286;SDS011;37364;46.974;18.916;2023-10-08T04:24:42;7.47;;;4.43;;
51286;SDS011;37364;46.974;18.916;2023-10-08T04:27:13;6.60;;;4.20;;
51286;SDS011;37364;46.974;18.916;2023-10-08T04:29:48;8.20;;;4.82;;
51286;SDS011;37364;46.974;18.916;2023-10-08T04:32:19;10.95;;;5.10;;
51286;SDS011;37364;46.974;18.916;2023-10-08T04:34:52;7.30;;;4.28;;
51286;SDS011;37364;46.974;18.916;2023-10-08T04:37:23;10.50;;;5.50;;
51286;SDS011;37364;46.974;18.916;2023-10-08T04:39:59;9.60;;;4.63;;
51286;SDS011;37364;46.974;18.916;2023-10-08T04:42:31;6.15;;;3.40;;
51286;SDS011;37364;46.974;18.916;2023-10-08T04:45:11;6.20;;;3.53;;
51286;SDS011;37364;46.974;18.916;2023-10-08T04:47:47;5.20;;;3.50;;
51286;SDS011;37364;46.974;18.916;2023-10-08T04:50:18;12.48;;;3.95;;
51286;SDS011;37364;46.974;18.916;2023-10-08T04:52:56;15.95;;;4.45;;
51286;SDS011;37364;46.974;18.916;2023-10-08T04:55:34;4.93;;;3.42;;
51286;SDS011;37364;46.974;18.916;2023-10-08T04:58:15;6.43;;;3.90;;
51286;SDS011;37364;46.974;18.916;2023-10-08T05:01:02;5.38;;;3.92;;
51286;SDS011;37364;46.974;18.916;2023-10-08T05:03:49;12.95;;;4.63;;
51286;SDS011;37364;46.974;18.916;2023-10-08T05:06:34;7.63;;;4.13;;
51286;SDS011;37364;46.974;18.916;2023-10-08T05:12:10;5.82;;;4.07;;
51286;SDS011;37364;46.974;18.916;2023-10-08T05:14:58;6.05;;;3.70;;
51286;SDS011;37364;46.974;18.916;2023-10-08T05:17:45;9.65;;;6.40;;
51286;SDS011;37364;46.974;18.916;2023-10-08T05:20:25;6.70;;;4.00;;
51286;SDS011;37364;46.974;18.916;2023-10-08T05:23:27;4.32;;;3.38;;
51286;SDS011;37364;46.974;18.916;2023-10-08T05:26:12;8.60;;;3.75;;
51286;SDS011;37364;46.974;18.916;2023-10-08T05:28:48;8.70;;;4.13;;
51286;SDS011;37364;46.974;18.916;2023-10-08T05:31:28;7.45;;;4.22;;
51286;SDS011;37364;46.974;18.916;2023-10-08T05:34:13;7.20;;;3.85;;
51286;SDS011;37364;46.974;18.916;2023-10-08T05:36:59;6.85;;;4.07;;
51286;SDS011;37364;46.974;18.916;2023-10-08T05:39:59;9.25;;;3.67;;
51286;SDS011;37364;46.974;18.916;2023-10-08T05:42:48;5.60;;;3.85;;
51286;SDS011;37364;46.974;18.916;2023-10-08T05:45:28;8.40;;;4.75;;
51286;SDS011;37364;46.974;18.916;2023-10-08T05:48:02;4.95;;;3.17;;
51286;SDS011;37364;46.974;18.916;2023-10-08T05:50:45;5.70;;;3.72;;
51286;SDS011;37364;46.974;18.916;2023-10-08T05:53:40;6.03;;;3.40;;
51286;SDS011;37364;46.974;18.916;2023-10-08T05:56:11;12.57;;;4.25;;
51286;SDS011;37364;46.974;18.916;2023-10-08T05:59:09;10.23;;;3.50;;
51286;SDS011;37364;46.974;18.916;2023-10-08T06:01:45;13.02;;;4.35;;
51286;SDS011;37364;46.974;18.916;2023-10-08T06:04:25;6.28;;;2.72;;
51286;SDS011;37364;46.974;18.916;2023-10-08T06:07:22;9.00;;;3.58;;
51286;SDS011;37364;46.974;18.916;2023-10-08T06:10:00;6.82;;;4.18;;
51286;SDS011;37364;46.974;18.916;2023-10-08T06:12:29;6.72;;;3.80;;
51286;SDS011;37364;46.974;18.916;2023-10-08T06:15:11;9.30;;;4.60;;
51286;SDS011;37364;46.974;18.916;2023-10-08T06:17:53;8.60;;;4.38;;
51286;SDS011;37364;46.974;18.916;2023-10-08T06:20:34;4.47;;;3.05;;
51286;SDS011;37364;46.974;18.916;2023-10-08T06:23:10;11.82;;;4.05;;
51286;SDS011;37364;46.974;18.916;2023-10-08T06:25:45;6.53;;;3.65;;
51286;SDS011;37364;46.974;18.916;2023-10-08T06:28:21;8.82;;;3.80;;
51286;SDS011;37364;46.974;18.916;2023-10-08T06:30:53;10.07;;;3.85;;
51286;SDS011;37364;46.974;18.916;2023-10-08T06:33:25;8.43;;;3.88;;
51286;SDS011;37364;46.974;18.916;2023-10-08T06:35:57;5.72;;;3.55;;
51286;SDS011;37364;46.974;18.916;2023-10-08T06:38:43;8.63;;;3.92;;
51286;SDS011;37364;46.974;18.916;2023-10-08T06:41:16;13.52;;;3.85;;
51286;SDS011;37364;46.974;18.916;2023-10-08T06:44:09;8.73;;;3.85;;
51286;SDS011;37364;46.974;18.916;2023-10-08T06:46:41;11.90;;;3.90;;
51286;SDS011;37364;46.974;18.916;2023-10-08T06:49:12;8.05;;;3.10;;
51286;SDS011;37364;46.974;18.916;2023-10-08T06:51:45;5.40;;;2.85;;
51286;SDS011;37364;46.974;18.916;2023-10-08T06:54:19;7.20;;;3.05;;
51286;SDS011;37364;46.974;18.916;2023-10-08T06:56:50;5.68;;;3.10;;
51286;SDS011;37364;46.974;18.916;2023-10-08T06:59:22;6.38;;;3.47;;
51286;SDS011;37364;46.974;18.916;2023-10-08T07:01:58;8.90;;;2.95;;
51286;SDS011;37364;46.974;18.916;2023-10-08T07:04:30;7.15;;;3.00;;
51286;SDS011;37364;46.974;18.916;2023-10-08T07:07:03;5.70;;;2.60;;
51286;SDS011;37364;46.974;18.916;2023-10-08T07:09:42;6.50;;;2.67;;
51286;SDS011;37364;46.974;18.916;2023-10-08T07:12:12;12.00;;;3.78;;
51286;SDS011;37364;46.974;18.916;2023-10-08T07:14:44;6.35;;;2.75;;
51286;SDS011;37364;46.974;18.916;2023-10-08T07:17:14;4.80;;;2.30;;
51286;SDS011;37364;46.974;18.916;2023-10-08T07:19:49;4.65;;;3.00;;
51286;SDS011;37364;46.974;18.916;2023-10-08T07:22:25;5.28;;;2.53;;
51286;SDS011;37364;46.974;18.916;2023-10-08T07:25:02;5.53;;;2.45;;
51286;SDS011;37364;46.974;18.916;2023-10-08T07:27:35;6.45;;;3.08;;
51286;SDS011;37364;46.974;18.916;2023-10-08T07:30:07;8.27;;;3.20;;
51286;SDS011;37364;46.974;18.916;2023-10-08T07:32:40;5.35;;;2.95;;
51286;SDS011;37364;46.974;18.916;2023-10-08T07:35:11;4.47;;;2.47;;
51286;SDS011;37364;46.974;18.916;2023-10-08T07:37:51;5.85;;;2.65;;
51286;SDS011;37364;46.974;18.916;2023-10-08T07:40:30;5.50;;;2.45;;
51286;SDS011;37364;46.974;18.916;2023-10-08T07:43:05;6.05;;;2.63;;
51286;SDS011;37364;46.974;18.916;2023-10-08T07:45:36;9.35;;;2.13;;
51286;SDS011;37364;46.974;18.916;2023-10-08T07:48:07;5.00;;;2.50;;
51286;SDS011;37364;46.974;18.916;2023-10-08T07:50:44;6.70;;;2.28;;
51286;SDS011;37364;46.974;18.916;2023-10-08T07:53:24;6.50;;;3.05;;
51286;SDS011;37364;46.974;18.916;2023-10-08T07:56:10;13.95;;;1.92;;
51286;SDS011;37364;46.974;18.916;2023-10-08T07:58:45;10.68;;;3.45;;
51286;SDS011;37364;46.974;18.916;2023-10-08T08:01:20;5.57;;;2.85;;
51286;SDS011;37364;46.974;18.916;2023-10-08T08:03:52;18.05;;;2.72;;
51286;SDS011;37364;46.974;18.916;2023-10-08T08:06:26;5.22;;;2.10;;
51286;SDS011;37364;46.974;18.916;2023-10-08T08:14:07;12.52;;;2.90;;
51286;SDS011;37364;46.974;18.916;2023-10-08T08:16:40;7.57;;;1.88;;
51286;SDS011;37364;46.974;18.916;2023-10-08T08:19:18;8.63;;;3.53;;
51286;SDS011;37364;46.974;18.916;2023-10-08T08:21:52;18.70;;;3.22;;
51286;SDS011;37364;46.974;18.916;2023-10-08T08:24:31;10.70;;;2.85;;
51286;SDS011;37364;46.974;18.916;2023-10-08T08:29:44;6.10;;;2.20;;
51286;SDS011;37364;46.974;18.916;2023-10-08T08:32:18;7.45;;;2.58;;
51286;SDS011;37364;46.974;18.916;2023-10-08T08:34:48;5.90;;;2.60;;
51286;SDS011;37364;46.974;18.916;2023-10-08T08:37:19;4.28;;;2.03;;
51286;SDS011;37364;46.974;18.916;2023-10-08T08:39:53;9.65;;;2.63;;
51286;SDS011;37364;46.974;18.916;2023-10-08T08:42:25;5.30;;;2.03;;
51286;SDS011;37364;46.974;18.916;2023-10-08T08:44:58;15.55;;;2.72;;
51286;SDS011;37364;46.974;18.916;2023-10-08T08:47:35;10.13;;;2.40;;
51286;SDS011;37364;46.974;18.916;2023-10-08T08:50:08;9.95;;;2.38;;
51286;SDS011;37364;46.974;18.916;2023-10-08T08:52:46;6.75;;;2.53;;
51286;SDS011;37364;46.974;18.916;2023-10-08T08:55:19;4.93;;;2.20;;
51286;SDS011;37364;46.974;18.916;2023-10-08T09:00:31;25.45;;;2.53;;
51286;SDS011;37364;46.974;18.916;2023-10-08T09:03:05;11.13;;;2.08;;
51286;SDS011;37364;46.974;18.916;2023-10-08T09:05:40;12.57;;;1.92;;
51286;SDS011;37364;46.974;18.916;2023-10-08T09:08:16;10.77;;;2.13;;
51286;SDS011;37364;46.974;18.916;2023-10-08T09:10:51;3.80;;;1.67;;
51286;SDS011;37364;46.974;18.916;2023-10-08T09:13:26;3.88;;;2.05;;
51286;SDS011;37364;46.974;18.916;2023-10-08T09:16:06;9.23;;;2.08;;
51286;SDS011;37364;46.974;18.916;2023-10-08T09:18:37;16.33;;;2.15;;
51286;SDS011;37364;46.974;18.916;2023-10-08T09:21:09;3.35;;;2.30;;
51286;SDS011;37364;46.974;18.916;2023-10-08T09:23:41;4.45;;;2.30;;
51286;SDS011;37364;46.974;18.916;2023-10-08T09:26:16;6.00;;;2.67;;
51286;SDS011;37364;46.974;18.916;2023-10-08T09:28:49;5.00;;;2.33;;
51286;SDS011;37364;46.974;18.916;2023-10-08T09:31:22;6.47;;;2.03;;
51286;SDS011;37364;46.974;18.916;2023-10-08T09:33:56;14.05;;;2.72;;
51286;SDS011;37364;46.974;18.916;2023-10-08T09:36:27;10.20;;;2.67;;
51286;SDS011;37364;46.974;18.916;2023-10-08T09:39:03;6.47;;;2.70;;
51286;SDS011;37364;46.974;18.916;2023-10-08T09:41:37;3.63;;;2.10;;
51286;SDS011;37364;46.974;18.916;2023-10-08T09:44:14;6.72;;;2.10;;
51286;SDS011;37364;46.974;18.916;2023-10-08T09:46:51;4.40;;;2.90;;
51286;SDS011;37364;46.974;18.916;2023-10-08T09:49:24;8.07;;;2.22;;
51286;SDS011;37364;46.974;18.916;2023-10-08T09:52:02;9.93;;;2.42;;
51286;SDS011;37364;46.974;18.916;2023-10-08T09:54:36;4.45;;;2.25;;
51286;SDS011;37364;46.974;18.916;2023-10-08T09:57:12;5.35;;;2.03;;
51286;SDS011;37364;46.974;18.916;2023-10-08T09:59:54;6.07;;;2.63;;
51286;SDS011;37364;46.974;18.916;2023-10-08T10:02:30;4.65;;;2.38;;
51286;SDS011;37364;46.974;18.916;2023-10-08T10:05:03;2.70;;;1.70;;
51286;SDS011;37364;46.974;18.916;2023-10-08T10:07:40;4.68;;;1.90;;
51286;SDS011;37364;46.974;18.916;2023-10-08T10:10:26;6.47;;;2.42;;
51286;SDS011;37364;46.974;18.916;2023-10-08T10:13:02;5.18;;;2.17;;
51286;SDS011;37364;46.974;18.916;2023-10-08T10:15:38;7.13;;;2.30;;
51286;SDS011;37364;46.974;18.916;2023-10-08T10:18:13;14.48;;;2.88;;
51286;SDS011;37364;46.974;18.916;2023-10-08T10:20:49;4.80;;;2.42;;
51286;SDS011;37364;46.974;18.916;2023-10-08T10:23:35;5.05;;;2.67;;
51286;SDS011;37364;46.974;18.916;2023-10-08T10:26:21;8.95;;;2.05;;
51286;SDS011;37364;46.974;18.916;2023-10-08T10:31:59;3.92;;;1.98;;
51286;SDS011;37364;46.974;18.916;2023-10-08T10:34:32;11.40;;;2.90;;
51286;SDS011;37364;46.974;18.916;2023-10-08T10:37:07;5.03;;;2.72;;
51286;SDS011;37364;46.974;18.916;2023-10-08T10:39:53;17.08;;;2.60;;
51286;SDS011;37364;46.974;18.916;2023-10-08T10:42:35;4.47;;;2.35;;
51286;SDS011;37364;46.974;18.916;2023-10-08T10:45:13;8.13;;;2.88;;
51286;SDS011;37364;46.974;18.916;2023-10-08T10:48:08;3.45;;;2.22;;
51286;SDS011;37364;46.974;18.916;2023-10-08T10:50:50;11.15;;;2.97;;
51286;SDS011;37364;46.974;18.916;2023-10-08T10:53:38;6.10;;;2.78;;
51286;SDS011;37364;46.974;18.916;2023-10-08T10:56:24;10.38;;;2.53;;
51286;SDS011;37364;46.974;18.916;2023-10-08T10:59:02;5.10;;;1.92;;
51286;SDS011;37364;46.974;18.916;2023-10-08T11:01:46;5.33;;;2.37;;
51286;SDS011;37364;46.974;18.916;2023-10-08T11:04:30;9.52;;;3.35;;
51286;SDS011;37364;46.974;18.916;2023-10-08T11:07:15;4.63;;;2.33;;
51286;SDS011;37364;46.974;18.916;2023-10-08T11:09:47;8.25;;;3.20;;
51286;SDS011;37364;46.974;18.916;2023-10-08T11:12:24;6.18;;;3.78;;
51286;SDS011;37364;46.974;18.916;2023-10-08T11:15:15;4.97;;;2.15;;
51286;SDS011;37364;46.974;18.916;2023-10-08T11:17:46;9.10;;;2.17;;
51286;SDS011;37364;46.974;18.916;2023-10-08T11:23:04;5.43;;;1.65;;
51286;SDS011;37364;46.974;18.916;2023-10-08T11:25:54;4.05;;;1.23;;
51286;SDS011;37364;46.974;18.916;2023-10-08T11:28:28;3.28;;;0.95;;
51286;SDS011;37364;46.974;18.916;2023-10-08T11:31:10;3.22;;;0.88;;
51286;SDS011;37364;46.974;18.916;2023-10-08T11:33:42;0.73;;;0.73;;
51286;SDS011;37364;46.974;18.916;2023-10-08T11:36:24;1.75;;;0.75;;
51286;SDS011;37364;46.974;18.916;2023-10-08T11:39:08;1.75;;;0.50;;
51286;SDS011;37364;46.974;18.916;2023-10-08T11:41:55;3.70;;;0.73;;
51286;SDS011;37364;46.974;18.916;2023-10-08T11:44:38;0.30;;;0.30;;
51286;SDS011;37364;46.974;18.916;2023-10-08T11:47:10;0.20;;;0.20;;
51286;SDS011;37364;46.974;18.916;2023-10-08T11:49:48;3.25;;;0.40;;
51286;SDS011;37364;46.974;18.916;2023-10-08T11:52:41;1.20;;;0.20;;
51286;SDS011;37364;46.974;18.916;2023-10-08T11:55:12;0.93;;;0.30;;
51286;SDS011;37364;46.974;18.916;2023-10-08T11:57:47;0.38;;;0.38;;
51286;SDS011;37364;46.974;18.916;2023-10-08T12:00:21;1.63;;;1.10;;
51286;SDS011;37364;46.974;18.916;2023-10-08T12:03:20;3.70;;;0.80;;
51286;SDS011;37364;46.974;18.916;2023-10-08T12:05:56;0.45;;;0.38;;
51286;SDS011;37364;46.974;18.916;2023-10-08T12:08:31;14.45;;;0.20;;
51286;SDS011;37364;46.974;18.916;2023-10-08T12:11:12;0.20;;;0.20;;
51286;SDS011;37364;46.974;18.916;2023-10-08T12:13:49;0.20;;;0.20;;
51286;SDS011;37364;46.974;18.916;2023-10-08T12:16:22;0.43;;;0.30;;
51286;SDS011;37364;46.974;18.916;2023-10-08T12:18:56;0.10;;;0.10;;
51286;SDS011;37364;46.974;18.916;2023-10-08T12:21:28;0.50;;;0.30;;
51286;SDS011;37364;46.974;18.916;2023-10-08T12:24:01;1.30;;;0.45;;
51286;SDS011;37364;46.974;18.916;2023-10-08T12:26:32;0.20;;;0.20;;
51286;SDS011;37364;46.974;18.916;2023-10-08T12:29:06;0.20;;;0.20;;
51286;SDS011;37364;46.974;18.916;2023-10-08T12:31:39;0.10;;;0.10;;
51286;SDS011;37364;46.974;18.916;2023-10-08T12:34:18;0.30;;;0.30;;
51286;SDS011;37364;46.974;18.916;2023-10-08T12:36:59;0.93;;;0.10;;
51286;SDS011;37364;46.974;18.916;2023-10-08T12:39:34;0.17;;;0.17;;
51286;SDS011;37364;46.974;18.916;2023-10-08T12:45:11;1.45;;;0.30;;
51286;SDS011;37364;46.974;18.916;2023-10-08T12:47:59;0.20;;;0.13;;
51286;SDS011;37364;46.974;18.916;2023-10-08T12:50:37;0.20;;;0.20;;
51286;SDS011;37364;46.974;18.916;2023-10-08T12:53:12;0.20;;;0.20;;
51286;SDS011;37364;46.974;18.916;2023-10-08T12:55:45;0.30;;;0.30;;
51286;SDS011;37364;46.974;18.916;2023-10-08T12:58:20;0.95;;;0.38;;
51286;SDS011;37364;46.974;18.916;2023-10-08T13:00:57;6.65;;;0.20;;
51286;SDS011;37364;46.974;18.916;2023-10-08T13:03:31;0.10;;;0.10;;
51286;SDS011;37364;46.974;18.916;2023-10-08T13:06:11;0.20;;;0.20;;
51286;SDS011;37364;46.974;18.916;2023-10-08T13:08:55;1.65;;;0.10;;
51286;SDS011;37364;46.974;18.916;2023-10-08T13:11:32;0.32;;;0.30;;
51286;SDS011;37364;46.974;18.916;2023-10-08T13:14:07;0.20;;;0.20;;
51286;SDS011;37364;46.974;18.916;2023-10-08T13:16:34;0.10;;;0.10;;
51286;SDS011;37364;46.974;18.916;2023-10-08T13:19:07;0.95;;;0.30;;
51286;SDS011;37364;46.974;18.916;2023-10-08T13:21:37;7.78;;;0.28;;
51286;SDS011;37364;46.974;18.916;2023-10-08T13:24:08;0.20;;;0.20;;
51286;SDS011;37364;46.974;18.916;2023-10-08T13:29:14;0.30;;;0.30;;
51286;SDS011;37364;46.974;18.916;2023-10-08T13:32:04;0.25;;;0.25;;
51286;SDS011;37364;46.974;18.916;2023-10-08T13:34:40;1.95;;;0.40;;
51286;SDS011;37364;46.974;18.916;2023-10-08T13:37:16;0.30;;;0.30;;
51286;SDS011;37364;46.974;18.916;2023-10-08T13:39:47;0.28;;;0.28;;
51286;SDS011;37364;46.974;18.916;2023-10-08T13:42:22;0.20;;;0.20;;
51286;SDS011;37364;46.974;18.916;2023-10-08T13:44:54;0.28;;;0.28;;
51286;SDS011;37364;46.974;18.916;2023-10-08T13:47:24;0.20;;;0.20;;
51286;SDS011;37364;46.974;18.916;2023-10-08T13:50:02;0.20;;;0.20;;
51286;SDS011;37364;46.974;18.916;2023-10-08T13:52:45;0.30;;;0.30;;
51286;SDS011;37364;46.974;18.916;2023-10-08T13:55:19;0.20;;;0.20;;
51286;SDS011;37364;46.974;18.916;2023-10-08T13:58:03;0.38;;;0.38;;
51286;SDS011;37364;46.974;18.916;2023-10-08T14:00:43;0.20;;;0.20;;
51286;SDS011;37364;46.974;18.916;2023-10-08T14:03:15;0.17;;;0.17;;
51286;SDS011;37364;46.974;18.916;2023-10-08T14:05:48;0.85;;;0.45;;
51286;SDS011;37364;46.974;18.916;2023-10-08T14:08:28;0.22;;;0.22;;
51286;SDS011;37364;46.974;18.916;2023-10-08T14:10:59;0.30;;;0.30;;
51286;SDS011;37364;46.974;18.916;2023-10-08T14:13:42;0.22;;;0.22;;
51286;SDS011;37364;46.974;18.916;2023-10-08T14:16:20;0.38;;;0.38;;
51286;SDS011;37364;46.974;18.916;2023-10-08T14:18:56;0.17;;;0.17;;
51286;SDS011;37364;46.974;18.916;2023-10-08T14:21:37;0.30;;;0.30;;
51286;SDS011;37364;46.974;18.916;2023-10-08T14:24:16;1.30;;;0.20;;
51286;SDS011;37364;46.974;18.916;2023-10-08T14:26:47;1.38;;;0.28;;
51286;SDS011;37364;46.974;18.916;2023-10-08T14:29:22;0.20;;;0.20;;
51286;SDS011;37364;46.974;18.916;2023-10-08T14:31:53;0.40;;;0.30;;
51286;SDS011;37364;46.974;18.916;2023-10-08T14:34:27;0.40;;;0.40;;
51286;SDS011;37364;46.974;18.916;2023-10-08T14:37:10;6.35;;;0.30;;
51286;SDS011;37364;46.974;18.916;2023-10-08T14:39:59;0.70;;;0.60;;
51286;SDS011;37364;46.974;18.916;2023-10-08T14:42:42;5.72;;;0.50;;
51286;SDS011;37364;46.974;18.916;2023-10-08T14:45:35;0.20;;;0.20;;
51286;SDS011;37364;46.974;18.916;2023-10-08T14:48:15;0.50;;;0.50;;
51286;SDS011;37364;46.974;18.916;2023-10-08T14:50:54;0.55;;;0.45;;
51286;SDS011;37364;46.974;18.916;2023-10-08T14:53:28;0.40;;;0.40;;
51286;SDS011;37364;46.974;18.916;2023-10-08T14:55:54;0.30;;;0.30;;
51286;SDS011;37364;46.974;18.916;2023-10-08T15:01:01;0.60;;;0.60;;
51286;SDS011;37364;46.974;18.916;2023-10-08T15:03:37;0.40;;;0.40;;
51286;SDS011;37364;46.974;18.916;2023-10-08T15:06:07;2.08;;;0.60;;
51286;SDS011;37364;46.974;18.916;2023-10-08T15:08:38;0.60;;;0.43;;
51286;SDS011;37364;46.974;18.916;2023-10-08T15:11:12;0.43;;;0.43;;
51286;SDS011;37364;46.974;18.916;2023-10-08T15:13:48;0.65;;;0.65;;
51286;SDS011;37364;46.974;18.916;2023-10-08T15:16:39;0.70;;;0.50;;
51286;SDS011;37364;46.974;18.916;2023-10-08T15:19:19;1.00;;;0.47;;
51286;SDS011;37364;46.974;18.916;2023-10-08T15:21:54;0.98;;;0.60;;
51286;SDS011;37364;46.974;18.916;2023-10-08T15:24:32;0.85;;;0.77;;
51286;SDS011;37364;46.974;18.916;2023-10-08T15:27:03;0.60;;;0.60;;
51286;SDS011;37364;46.974;18.916;2023-10-08T15:29:34;0.90;;;0.90;;
51286;SDS011;37364;46.974;18.916;2023-10-08T15:32:07;0.50;;;0.50;;
51286;SDS011;37364;46.974;18.916;2023-10-08T15:34:47;2.30;;;0.80;;
51286;SDS011;37364;46.974;18.916;2023-10-08T15:37:33;0.70;;;0.63;;
51286;SDS011;37364;46.974;18.916;2023-10-08T15:40:18;0.65;;;0.65;;
51286;SDS011;37364;46.974;18.916;2023-10-08T15:42:55;1.13;;;0.82;;
51286;SDS011;37364;46.974;18.916;2023-10-08T15:45:32;8.45;;;0.88;;
51286;SDS011;37364;46.974;18.916;2023-10-08T15:48:07;2.08;;;1.00;;
51286;SDS011;37364;46.974;18.916;2023-10-08T15:50:38;0.70;;;0.70;;
51286;SDS011;37364;46.974;18.916;2023-10-08T15:53:14;2.33;;;1.02;;
51286;SDS011;37364;46.974;18.916;2023-10-08T15:55:45;0.60;;;0.60;;
51286;SDS011;37364;46.974;18.916;2023-10-08T15:58:29;6.97;;;1.00;;
51286;SDS011;37364;46.974;18.916;2023-10-08T16:01:09;3.90;;;0.98;;